sensor_id;sensor_type;location;lat;lon;timestamp;temperature;humidity
14049;DHT22;7099;53.922;10.728;2022-08-26T00:02:15;22.20;99.90
14049;DHT22;7099;53.922;10.728;2022-08-26T00:06:44;22.20;99.90
14049;DHT22;7099;53.922;10.728;2022-08-26T00:11:10;22.20;99.90
14049;DHT22;7099;53.922;10.728;2022-08-26T00:15:37;22.10;99.90
14049;DHT22;7099;53.922;10.728;2022-08-26T00:20:05;22.10;99.90
14049;DHT22;7099;53.922;10.728;2022-08-26T00:24:31;22.00;99.90
14049;DHT22;7099;53.922;10.728;2022-08-26T00:28:57;22.00;99.90
14049;DHT22;7099;53.922;10.728;2022-08-26T00:33:22;22.00;99.90
14049;DHT22;7099;53.922;10.728;2022-08-26T00:37:48;21.90;99.90
14049;DHT22;7099;53.922;10.728;2022-08-26T00:42:13;21.90;99.90
14049;DHT22;7099;53.922;10.728;2022-08-26T00:46:45;21.90;99.90
14049;DHT22;7099;53.922;10.728;2022-08-26T00:51:21;21.90;99.90
14049;DHT22;7099;53.922;10.728;2022-08-26T00:56:06;21.80;99.90
14049;DHT22;7099;53.922;10.728;2022-08-26T01:00:37;21.80;99.90
14049;DHT22;7099;53.922;10.728;2022-08-26T01:05:05;21.70;99.90
14049;DHT22;7099;53.922;10.728;2022-08-26T01:09:31;21.70;99.90
14049;DHT22;7099;53.922;10.728;2022-08-26T01:13:59;21.60;99.90
14049;DHT22;7099;53.922;10.728;2022-08-26T01:18:26;21.60;99.90
14049;DHT22;7099;53.922;10.728;2022-08-26T01:23:11;21.60;99.90
14049;DHT22;7099;53.922;10.728;2022-08-26T01:27:37;21.60;99.90
14049;DHT22;7099;53.922;10.728;2022-08-26T01:32:04;21.60;99.90
14049;DHT22;7099;53.922;10.728;2022-08-26T01:36:31;21.50;99.90
14049;DHT22;7099;53.922;10.728;2022-08-26T01:40:57;21.50;99.90
14049;DHT22;7099;53.922;10.728;2022-08-26T01:45:25;21.50;99.90
14049;DHT22;7099;53.922;10.728;2022-08-26T01:49:55;21.50;99.90
14049;DHT22;7099;53.922;10.728;2022-08-26T01:54:22;21.50;99.90
14049;DHT22;7099;53.922;10.728;2022-08-26T01:58:55;21.40;99.90
14049;DHT22;7099;53.922;10.728;2022-08-26T02:03:23;21.40;99.90
14049;DHT22;7099;53.922;10.728;2022-08-26T02:07:49;21.40;99.90
14049;DHT22;7099;53.922;10.728;2022-08-26T02:12:16;21.30;99.90
14049;DHT22;7099;53.922;10.728;2022-08-26T02:16:46;21.30;99.90
14049;DHT22;7099;53.922;10.728;2022-08-26T02:21:13;21.30;99.90
14049;DHT22;7099;53.922;10.728;2022-08-26T02:25:52;21.20;99.90
14049;DHT22;7099;53.922;10.728;2022-08-26T02:30:24;21.20;99.90
14049;DHT22;7099;53.922;10.728;2022-08-26T02:34:51;21.10;99.90
14049;DHT22;7099;53.922;10.728;2022-08-26T02:39:17;21.10;99.90
14049;DHT22;7099;53.922;10.728;2022-08-26T02:43:46;21.10;99.90
14049;DHT22;7099;53.922;10.728;2022-08-26T02:48:14;21.10;99.90
14049;DHT22;7099;53.922;10.728;2022-08-26T02:52:42;21.10;99.90
14049;DHT22;7099;53.922;10.728;2022-08-26T02:57:08;21.00;99.90
14049;DHT22;7099;53.922;10.728;2022-08-26T03:01:35;21.00;99.90
14049;DHT22;7099;53.922;10.728;2022-08-26T03:06:00;21.00;99.90
14049;DHT22;7099;53.922;10.728;2022-08-26T03:10:26;21.00;99.90
14049;DHT22;7099;53.922;10.728;2022-08-26T03:14:52;20.90;99.90
14049;DHT22;7099;53.922;10.728;2022-08-26T03:19:18;20.90;99.90
14049;DHT22;7099;53.922;10.728;2022-08-26T03:23:44;20.90;99.90
14049;DHT22;7099;53.922;10.728;2022-08-26T03:28:09;20.90;99.90
14049;DHT22;7099;53.922;10.728;2022-08-26T03:32:35;20.90;99.90
14049;DHT22;7099;53.922;10.728;2022-08-26T03:37:01;20.80;99.90
14049;DHT22;7099;53.922;10.728;2022-08-26T03:41:26;20.80;99.90
14049;DHT22;7099;53.922;10.728;2022-08-26T03:45:52;20.80;99.90
14049;DHT22;7099;53.922;10.728;2022-08-26T03:50:20;20.80;99.90
14049;DHT22;7099;53.922;10.728;2022-08-26T03:54:48;20.90;99.90
14049;DHT22;7099;53.922;10.728;2022-08-26T03:59:13;20.90;99.90
14049;DHT22;7099;53.922;10.728;2022-08-26T04:03:39;20.90;99.90
14049;DHT22;7099;53.922;10.728;2022-08-26T04:08:24;20.90;99.90
14049;DHT22;7099;53.922;10.728;2022-08-26T04:12:51;20.90;99.90
14049;DHT22;7099;53.922;10.728;2022-08-26T04:17:18;20.90;99.90
14049;DHT22;7099;53.922;10.728;2022-08-26T04:21:49;21.00;99.90
14049;DHT22;7099;53.922;10.728;2022-08-26T04:26:19;21.00;99.90
14049;DHT22;7099;53.922;10.728;2022-08-26T04:30:45;21.00;99.90
14049;DHT22;7099;53.922;10.728;2022-08-26T04:35:11;21.00;99.90
14049;DHT22;7099;53.922;10.728;2022-08-26T04:39:36;21.00;99.90
14049;DHT22;7099;53.922;10.728;2022-08-26T04:44:02;21.00;99.90
14049;DHT22;7099;53.922;10.728;2022-08-26T04:48:29;21.00;99.90
14049;DHT22;7099;53.922;10.728;2022-08-26T04:52:55;21.00;99.90
14049;DHT22;7099;53.922;10.728;2022-08-26T04:57:21;21.00;99.90
14049;DHT22;7099;53.922;10.728;2022-08-26T05:01:49;21.00;99.90
14049;DHT22;7099;53.922;10.728;2022-08-26T05:06:16;21.10;99.90
14049;DHT22;7099;53.922;10.728;2022-08-26T05:10:46;21.10;99.90
14049;DHT22;7099;53.922;10.728;2022-08-26T05:15:13;21.10;99.90
14049;DHT22;7099;53.922;10.728;2022-08-26T05:19:41;21.20;99.90
14049;DHT22;7099;53.922;10.728;2022-08-26T05:24:10;21.20;99.90
14049;DHT22;7099;53.922;10.728;2022-08-26T05:28:35;21.20;99.90
14049;DHT22;7099;53.922;10.728;2022-08-26T05:33:02;21.20;99.90
14049;DHT22;7099;53.922;10.728;2022-08-26T05:37:27;21.20;99.90
14049;DHT22;7099;53.922;10.728;2022-08-26T05:41:53;21.20;99.90
14049;DHT22;7099;53.922;10.728;2022-08-26T05:46:18;21.30;99.90
14049;DHT22;7099;53.922;10.728;2022-08-26T05:50:47;21.30;99.90
14049;DHT22;7099;53.922;10.728;2022-08-26T05:55:14;21.30;99.90
14049;DHT22;7099;53.922;10.728;2022-08-26T05:59:43;21.30;99.90
14049;DHT22;7099;53.922;10.728;2022-08-26T06:04:10;21.40;99.90
14049;DHT22;7099;53.922;10.728;2022-08-26T06:08:36;21.40;99.90
14049;DHT22;7099;53.922;10.728;2022-08-26T06:13:02;21.50;99.90
14049;DHT22;7099;53.922;10.728;2022-08-26T06:17:36;21.50;99.90
14049;DHT22;7099;53.922;10.728;2022-08-26T06:22:01;21.50;99.90
14049;DHT22;7099;53.922;10.728;2022-08-26T06:26:50;21.50;99.90
14049;DHT22;7099;53.922;10.728;2022-08-26T06:31:17;21.50;99.90
14049;DHT22;7099;53.922;10.728;2022-08-26T06:35:43;21.50;99.90
14049;DHT22;7099;53.922;10.728;2022-08-26T06:40:12;21.60;99.90
14049;DHT22;7099;53.922;10.728;2022-08-26T06:44:37;21.60;99.90
14049;DHT22;7099;53.922;10.728;2022-08-26T06:49:05;21.70;99.90
14049;DHT22;7099;53.922;10.728;2022-08-26T06:53:32;21.80;99.90
14049;DHT22;7099;53.922;10.728;2022-08-26T06:57:58;21.80;99.90
14049;DHT22;7099;53.922;10.728;2022-08-26T07:02:23;21.90;99.90
14049;DHT22;7099;53.922;10.728;2022-08-26T07:06:52;22.00;99.90
14049;DHT22;7099;53.922;10.728;2022-08-26T07:11:18;22.10;99.90
14049;DHT22;7099;53.922;10.728;2022-08-26T07:15:44;22.10;99.90
14049;DHT22;7099;53.922;10.728;2022-08-26T07:20:10;22.10;99.90
14049;DHT22;7099;53.922;10.728;2022-08-26T07:24:37;22.20;99.90
14049;DHT22;7099;53.922;10.728;2022-08-26T07:29:06;22.30;99.90
14049;DHT22;7099;53.922;10.728;2022-08-26T07:33:31;22.30;99.90
14049;DHT22;7099;53.922;10.728;2022-08-26T07:37:57;22.40;99.90
14049;DHT22;7099;53.922;10.728;2022-08-26T07:42:22;22.50;99.90
14049;DHT22;7099;53.922;10.728;2022-08-26T07:46:48;22.60;99.90
14049;DHT22;7099;53.922;10.728;2022-08-26T07:51:19;22.70;99.90
14049;DHT22;7099;53.922;10.728;2022-08-26T07:55:46;22.70;99.90
14049;DHT22;7099;53.922;10.728;2022-08-26T08:00:13;22.80;99.90
14049;DHT22;7099;53.922;10.728;2022-08-26T08:04:40;22.90;99.90
14049;DHT22;7099;53.922;10.728;2022-08-26T08:09:05;23.00;99.90
14049;DHT22;7099;53.922;10.728;2022-08-26T08:13:30;23.20;99.90
14049;DHT22;7099;53.922;10.728;2022-08-26T08:17:56;23.30;99.90
14049;DHT22;7099;53.922;10.728;2022-08-26T08:22:24;23.40;99.90
14049;DHT22;7099;53.922;10.728;2022-08-26T08:26:51;23.40;99.90
14049;DHT22;7099;53.922;10.728;2022-08-26T08:31:22;23.60;99.90
14049;DHT22;7099;53.922;10.728;2022-08-26T08:36:10;23.70;99.90
14049;DHT22;7099;53.922;10.728;2022-08-26T08:40:44;23.80;99.90
14049;DHT22;7099;53.922;10.728;2022-08-26T08:50:22;24.20;99.90
14049;DHT22;7099;53.922;10.728;2022-08-26T08:54:48;24.30;99.90
14049;DHT22;7099;53.922;10.728;2022-08-26T08:59:21;24.40;99.90
14049;DHT22;7099;53.922;10.728;2022-08-26T09:08:29;24.80;99.90
14049;DHT22;7099;53.922;10.728;2022-08-26T09:12:57;25.00;99.90
14049;DHT22;7099;53.922;10.728;2022-08-26T09:22:02;25.40;99.90
14049;DHT22;7099;53.922;10.728;2022-08-26T09:31:11;25.80;99.90
14049;DHT22;7099;53.922;10.728;2022-08-26T09:35:39;26.00;99.90
14049;DHT22;7099;53.922;10.728;2022-08-26T09:44:50;26.40;99.90
14049;DHT22;7099;53.922;10.728;2022-08-26T09:49:27;26.60;99.90
14049;DHT22;7099;53.922;10.728;2022-08-26T09:54:00;26.80;99.90
14049;DHT22;7099;53.922;10.728;2022-08-26T10:02:57;27.20;99.90
14049;DHT22;7099;53.922;10.728;2022-08-26T10:12:12;27.30;99.90
14049;DHT22;7099;53.922;10.728;2022-08-26T10:16:47;27.40;99.90
14049;DHT22;7099;53.922;10.728;2022-08-26T10:21:27;27.60;99.90
14049;DHT22;7099;53.922;10.728;2022-08-26T10:30:55;27.90;99.90
14049;DHT22;7099;53.922;10.728;2022-08-26T10:35:29;28.10;99.90
14049;DHT22;7099;53.922;10.728;2022-08-26T10:39:59;28.00;99.90
14049;DHT22;7099;53.922;10.728;2022-08-26T10:44:34;28.10;99.90
14049;DHT22;7099;53.922;10.728;2022-08-26T10:49:08;28.10;99.90
14049;DHT22;7099;53.922;10.728;2022-08-26T10:53:46;28.00;99.90
14049;DHT22;7099;53.922;10.728;2022-08-26T11:03:05;28.20;99.90
14049;DHT22;7099;53.922;10.728;2022-08-26T11:07:46;28.20;99.90
14049;DHT22;7099;53.922;10.728;2022-08-26T11:17:01;28.30;99.90
14049;DHT22;7099;53.922;10.728;2022-08-26T11:21:43;28.30;99.90
14049;DHT22;7099;53.922;10.728;2022-08-26T11:26:15;28.50;99.90
14049;DHT22;7099;53.922;10.728;2022-08-26T11:31:01;28.60;99.90
14049;DHT22;7099;53.922;10.728;2022-08-26T11:40:10;28.60;99.90
14049;DHT22;7099;53.922;10.728;2022-08-26T11:44:41;28.70;99.90
14049;DHT22;7099;53.922;10.728;2022-08-26T11:49:13;28.70;99.90
14049;DHT22;7099;53.922;10.728;2022-08-26T11:53:39;28.70;99.90
14049;DHT22;7099;53.922;10.728;2022-08-26T11:58:06;28.80;99.90
14049;DHT22;7099;53.922;10.728;2022-08-26T12:02:38;28.80;99.90
14049;DHT22;7099;53.922;10.728;2022-08-26T12:07:04;28.80;99.90
14049;DHT22;7099;53.922;10.728;2022-08-26T12:11:33;28.90;99.90
14049;DHT22;7099;53.922;10.728;2022-08-26T12:15:59;28.80;99.90
14049;DHT22;7099;53.922;10.728;2022-08-26T12:20:28;28.70;99.90
14049;DHT22;7099;53.922;10.728;2022-08-26T12:25:10;28.60;99.90
14049;DHT22;7099;53.922;10.728;2022-08-26T12:29:35;28.70;99.90
14049;DHT22;7099;53.922;10.728;2022-08-26T12:34:04;28.70;99.90
14049;DHT22;7099;53.922;10.728;2022-08-26T12:38:41;28.80;99.90
14049;DHT22;7099;53.922;10.728;2022-08-26T12:43:07;28.80;99.90
14049;DHT22;7099;53.922;10.728;2022-08-26T12:47:37;28.90;99.90
14049;DHT22;7099;53.922;10.728;2022-08-26T12:52:18;29.00;99.90
14049;DHT22;7099;53.922;10.728;2022-08-26T12:56:56;29.00;99.90
14049;DHT22;7099;53.922;10.728;2022-08-26T13:01:21;29.10;99.90
14049;DHT22;7099;53.922;10.728;2022-08-26T13:05:47;29.00;99.90
14049;DHT22;7099;53.922;10.728;2022-08-26T13:10:31;29.10;99.90
14049;DHT22;7099;53.922;10.728;2022-08-26T13:14:58;29.10;99.90
14049;DHT22;7099;53.922;10.728;2022-08-26T13:19:24;29.20;99.90
14049;DHT22;7099;53.922;10.728;2022-08-26T13:23:49;29.20;99.90
14049;DHT22;7099;53.922;10.728;2022-08-26T13:28:15;29.20;99.90
14049;DHT22;7099;53.922;10.728;2022-08-26T13:32:41;29.20;99.90
14049;DHT22;7099;53.922;10.728;2022-08-26T13:37:07;29.40;99.90
14049;DHT22;7099;53.922;10.728;2022-08-26T13:41:32;29.30;99.90
14049;DHT22;7099;53.922;10.728;2022-08-26T13:45:57;29.40;99.90
14049;DHT22;7099;53.922;10.728;2022-08-26T13:50:24;29.40;99.90
14049;DHT22;7099;53.922;10.728;2022-08-26T13:54:49;29.40;99.90
14049;DHT22;7099;53.922;10.728;2022-08-26T13:59:17;29.40;99.90
14049;DHT22;7099;53.922;10.728;2022-08-26T14:03:43;29.50;99.90
14049;DHT22;7099;53.922;10.728;2022-08-26T14:08:08;29.40;99.90
14049;DHT22;7099;53.922;10.728;2022-08-26T14:12:34;29.50;99.90
14049;DHT22;7099;53.922;10.728;2022-08-26T14:16:59;29.40;99.90
14049;DHT22;7099;53.922;10.728;2022-08-26T14:21:25;29.30;99.90
14049;DHT22;7099;53.922;10.728;2022-08-26T14:25:53;29.40;99.90
14049;DHT22;7099;53.922;10.728;2022-08-26T14:30:18;29.60;99.90
14049;DHT22;7099;53.922;10.728;2022-08-26T14:34:44;29.70;99.90
14049;DHT22;7099;53.922;10.728;2022-08-26T14:39:11;29.80;99.90
14049;DHT22;7099;53.922;10.728;2022-08-26T14:43:38;29.60;99.90
14049;DHT22;7099;53.922;10.728;2022-08-26T14:48:06;29.70;99.90
14049;DHT22;7099;53.922;10.728;2022-08-26T14:52:32;29.70;99.90
14049;DHT22;7099;53.922;10.728;2022-08-26T14:57:17;29.60;99.90
14049;DHT22;7099;53.922;10.728;2022-08-26T15:01:43;29.50;99.90
14049;DHT22;7099;53.922;10.728;2022-08-26T15:06:09;29.10;99.90
14049;DHT22;7099;53.922;10.728;2022-08-26T15:10:35;28.70;99.90
14049;DHT22;7099;53.922;10.728;2022-08-26T15:15:00;28.30;99.90
14049;DHT22;7099;53.922;10.728;2022-08-26T15:19:26;28.00;99.90
14049;DHT22;7099;53.922;10.728;2022-08-26T15:23:51;27.80;99.90
14049;DHT22;7099;53.922;10.728;2022-08-26T15:28:17;27.70;99.90
14049;DHT22;7099;53.922;10.728;2022-08-26T15:32:42;27.50;99.90
14049;DHT22;7099;53.922;10.728;2022-08-26T15:37:07;27.30;99.90
14049;DHT22;7099;53.922;10.728;2022-08-26T15:41:33;27.20;99.90
14049;DHT22;7099;53.922;10.728;2022-08-26T15:45:58;27.00;99.90
14049;DHT22;7099;53.922;10.728;2022-08-26T15:50:24;26.80;99.90
14049;DHT22;7099;53.922;10.728;2022-08-26T15:54:50;26.60;99.90
14049;DHT22;7099;53.922;10.728;2022-08-26T15:59:16;26.40;99.90
14049;DHT22;7099;53.922;10.728;2022-08-26T16:03:42;26.20;99.90
14049;DHT22;7099;53.922;10.728;2022-08-26T16:08:09;26.00;99.90
14049;DHT22;7099;53.922;10.728;2022-08-26T16:12:34;25.90;99.90
14049;DHT22;7099;53.922;10.728;2022-08-26T16:17:00;25.80;99.90
14049;DHT22;7099;53.922;10.728;2022-08-26T16:21:25;25.80;99.90
14049;DHT22;7099;53.922;10.728;2022-08-26T16:25:52;25.70;99.90
14049;DHT22;7099;53.922;10.728;2022-08-26T16:30:17;25.60;99.90
14049;DHT22;7099;53.922;10.728;2022-08-26T16:34:43;25.60;99.90
14049;DHT22;7099;53.922;10.728;2022-08-26T16:39:20;25.60;99.90
14049;DHT22;7099;53.922;10.728;2022-08-26T16:43:46;25.40;99.90
14049;DHT22;7099;53.922;10.728;2022-08-26T16:48:11;25.30;99.90
14049;DHT22;7099;53.922;10.728;2022-08-26T16:52:36;25.20;99.90
14049;DHT22;7099;53.922;10.728;2022-08-26T16:57:02;25.20;99.90
14049;DHT22;7099;53.922;10.728;2022-08-26T17:01:27;25.20;99.90
14049;DHT22;7099;53.922;10.728;2022-08-26T17:05:52;25.10;99.90
14049;DHT22;7099;53.922;10.728;2022-08-26T17:10:18;25.00;99.90
14049;DHT22;7099;53.922;10.728;2022-08-26T17:14:43;25.00;99.90
14049;DHT22;7099;53.922;10.728;2022-08-26T17:19:09;25.00;99.90
14049;DHT22;7099;53.922;10.728;2022-08-26T17:23:37;24.90;99.90
14049;DHT22;7099;53.922;10.728;2022-08-26T17:28:02;24.80;99.90
14049;DHT22;7099;53.922;10.728;2022-08-26T17:32:35;24.80;99.90
14049;DHT22;7099;53.922;10.728;2022-08-26T17:37:00;24.70;99.90
14049;DHT22;7099;53.922;10.728;2022-08-26T17:41:25;24.70;99.90
14049;DHT22;7099;53.922;10.728;2022-08-26T17:45:57;24.60;99.90
14049;DHT22;7099;53.922;10.728;2022-08-26T17:50:31;24.60;99.90
14049;DHT22;7099;53.922;10.728;2022-08-26T17:54:57;24.50;99.90
14049;DHT22;7099;53.922;10.728;2022-08-26T17:59:23;24.50;99.90
14049;DHT22;7099;53.922;10.728;2022-08-26T18:03:54;24.40;99.90
14049;DHT22;7099;53.922;10.728;2022-08-26T18:08:24;24.40;99.90
14049;DHT22;7099;53.922;10.728;2022-08-26T18:12:50;24.30;99.90
14049;DHT22;7099;53.922;10.728;2022-08-26T18:17:15;24.30;99.90
14049;DHT22;7099;53.922;10.728;2022-08-26T18:21:43;24.20;99.90
14049;DHT22;7099;53.922;10.728;2022-08-26T18:26:13;24.20;99.90
14049;DHT22;7099;53.922;10.728;2022-08-26T18:30:43;24.10;99.90
14049;DHT22;7099;53.922;10.728;2022-08-26T18:35:09;24.10;99.90
14049;DHT22;7099;53.922;10.728;2022-08-26T18:39:35;24.00;99.90
14049;DHT22;7099;53.922;10.728;2022-08-26T18:44:00;23.90;99.90
14049;DHT22;7099;53.922;10.728;2022-08-26T18:48:25;23.90;99.90
14049;DHT22;7099;53.922;10.728;2022-08-26T18:52:51;23.90;99.90
14049;DHT22;7099;53.922;10.728;2022-08-26T18:57:16;23.80;99.90
14049;DHT22;7099;53.922;10.728;2022-08-26T19:01:41;23.80;99.90
14049;DHT22;7099;53.922;10.728;2022-08-26T19:06:11;23.70;99.90
14049;DHT22;7099;53.922;10.728;2022-08-26T19:10:38;23.70;99.90
14049;DHT22;7099;53.922;10.728;2022-08-26T19:15:04;23.60;99.90
14049;DHT22;7099;53.922;10.728;2022-08-26T19:19:30;23.60;99.90
14049;DHT22;7099;53.922;10.728;2022-08-26T19:23:58;23.60;99.90
14049;DHT22;7099;53.922;10.728;2022-08-26T19:28:24;23.60;99.90
14049;DHT22;7099;53.922;10.728;2022-08-26T19:32:49;23.60;99.90
14049;DHT22;7099;53.922;10.728;2022-08-26T19:37:16;23.60;99.90
14049;DHT22;7099;53.922;10.728;2022-08-26T19:41:43;23.50;99.90
14049;DHT22;7099;53.922;10.728;2022-08-26T19:46:14;23.50;99.90
14049;DHT22;7099;53.922;10.728;2022-08-26T19:50:41;23.50;99.90
14049;DHT22;7099;53.922;10.728;2022-08-26T19:55:08;23.50;99.90
14049;DHT22;7099;53.922;10.728;2022-08-26T19:59:34;23.50;99.90
14049;DHT22;7099;53.922;10.728;2022-08-26T20:04:00;23.50;99.90
14049;DHT22;7099;53.922;10.728;2022-08-26T20:08:25;23.40;99.90
14049;DHT22;7099;53.922;10.728;2022-08-26T20:12:51;23.40;99.90
14049;DHT22;7099;53.922;10.728;2022-08-26T20:17:16;23.40;99.90
14049;DHT22;7099;53.922;10.728;2022-08-26T20:21:41;23.40;99.90
14049;DHT22;7099;53.922;10.728;2022-08-26T20:26:07;23.40;99.90
14049;DHT22;7099;53.922;10.728;2022-08-26T20:30:32;23.40;99.90
14049;DHT22;7099;53.922;10.728;2022-08-26T20:34:58;23.40;99.90
14049;DHT22;7099;53.922;10.728;2022-08-26T20:39:24;23.30;99.90
14049;DHT22;7099;53.922;10.728;2022-08-26T20:43:53;23.20;99.90
14049;DHT22;7099;53.922;10.728;2022-08-26T20:48:19;23.20;99.90
14049;DHT22;7099;53.922;10.728;2022-08-26T20:52:44;23.20;99.90
14049;DHT22;7099;53.922;10.728;2022-08-26T20:57:10;23.20;99.90
14049;DHT22;7099;53.922;10.728;2022-08-26T21:01:36;23.20;99.90
14049;DHT22;7099;53.922;10.728;2022-08-26T21:06:06;23.20;99.90
14049;DHT22;7099;53.922;10.728;2022-08-26T21:10:32;23.20;99.90
14049;DHT22;7099;53.922;10.728;2022-08-26T21:14:57;23.20;99.90
14049;DHT22;7099;53.922;10.728;2022-08-26T21:19:23;23.20;99.90
14049;DHT22;7099;53.922;10.728;2022-08-26T21:23:48;23.20;99.90
14049;DHT22;7099;53.922;10.728;2022-08-26T21:28:14;23.20;99.90
14049;DHT22;7099;53.922;10.728;2022-08-26T21:32:40;23.20;99.90
14049;DHT22;7099;53.922;10.728;2022-08-26T21:37:05;23.20;99.90
14049;DHT22;7099;53.922;10.728;2022-08-26T21:41:42;23.20;99.90
14049;DHT22;7099;53.922;10.728;2022-08-26T21:46:10;23.20;99.90
14049;DHT22;7099;53.922;10.728;2022-08-26T21:50:38;23.20;99.90
14049;DHT22;7099;53.922;10.728;2022-08-26T21:55:05;23.10;99.90
14049;DHT22;7099;53.922;10.728;2022-08-26T21:59:36;23.10;99.90
14049;DHT22;7099;53.922;10.728;2022-08-26T22:04:02;23.10;99.90
14049;DHT22;7099;53.922;10.728;2022-08-26T22:08:29;23.10;99.90
14049;DHT22;7099;53.922;10.728;2022-08-26T22:12:54;23.10;99.90
14049;DHT22;7099;53.922;10.728;2022-08-26T22:17:20;23.10;99.90
14049;DHT22;7099;53.922;10.728;2022-08-26T22:21:48;23.00;99.90
14049;DHT22;7099;53.922;10.728;2022-08-26T22:26:16;23.00;99.90
14049;DHT22;7099;53.922;10.728;2022-08-26T22:30:49;23.00;99.90
14049;DHT22;7099;53.922;10.728;2022-08-26T22:35:15;22.90;99.90
14049;DHT22;7099;53.922;10.728;2022-08-26T22:39:53;22.90;99.90
14049;DHT22;7099;53.922;10.728;2022-08-26T22:44:19;22.90;99.90
14049;DHT22;7099;53.922;10.728;2022-08-26T22:48:46;23.00;99.90
14049;DHT22;7099;53.922;10.728;2022-08-26T22:53:17;22.90;99.90
14049;DHT22;7099;53.922;10.728;2022-08-26T22:57:43;22.90;99.90
14049;DHT22;7099;53.922;10.728;2022-08-26T23:02:08;22.90;99.90
14049;DHT22;7099;53.922;10.728;2022-08-26T23:06:37;22.90;99.90
14049;DHT22;7099;53.922;10.728;2022-08-26T23:11:06;22.90;99.90
14049;DHT22;7099;53.922;10.728;2022-08-26T23:15:33;22.90;99.90
14049;DHT22;7099;53.922;10.728;2022-08-26T23:19:58;22.90;99.90
14049;DHT22;7099;53.922;10.728;2022-08-26T23:24:23;22.90;99.90
14049;DHT22;7099;53.922;10.728;2022-08-26T23:28:48;22.90;99.90
14049;DHT22;7099;53.922;10.728;2022-08-26T23:33:14;22.90;99.90
14049;DHT22;7099;53.922;10.728;2022-08-26T23:37:40;22.80;99.90
14049;DHT22;7099;53.922;10.728;2022-08-26T23:42:06;22.80;99.90
14049;DHT22;7099;53.922;10.728;2022-08-26T23:46:32;22.80;99.90
14049;DHT22;7099;53.922;10.728;2022-08-26T23:50:58;22.70;99.90
14049;DHT22;7099;53.922;10.728;2022-08-26T23:55:42;22.70;99.90
